Back to Top

Language: 

My Weather Underground Personal Weather Station Historical Data with Graphs...

Delerius Weather Station Historical Data
Daily Summary for November 26, 2017 Units:  Metric    English   Both
« Previous Day
Next Day »
Daily Weekly Monthly Yearly Custom
  High: Low: Average:
Temperature: 8.3 °C 3.2 °C 4.8 °C
Dew Point: 6.6 °C 1.1 °C 2.7 °C
Humidity: 93 % 81 % 87 %
Wind Speed: 27.4 km/h 0 km/h 12.9 km/h
Wind Gust: 49.9 km/h - -
Wind:- - West
Pressure: 1021.6 hPa 1013.8 hPa -
Precipitation: 0 mm    
Historical Graphs
 
 
Tabular Data for November 26, 2017
Time Temperature Dew Point Pressure Wind Wind Speed Wind Gust Humidity Rainfall Rate (Hourly) solar Conditions
00:02 3.4 °C 1.4 °C 1017.2 hPa WNW 16.1 km/h 25.7 km/h 87 % 0 mm 0 W/m2
00:07 3.4 °C 1.4 °C 1016.8 hPa West 22.5 km/h 35.4 km/h 87 % 0 mm 0 W/m2
00:12 3.4 °C 1.4 °C 1016.8 hPa WNW 19.3 km/h 29 km/h 87 % 0 mm 0 W/m2
00:17 3.3 °C 1.3 °C 1017.2 hPa WNW 16.1 km/h 25.7 km/h 87 % 0 mm 0 W/m2
00:22 3.4 °C 1.4 °C 1016.8 hPa WNW 20.9 km/h 32.2 km/h 87 % 0 mm 0 W/m2
00:27 3.5 °C 1.6 °C 1016.8 hPa West 19.3 km/h 35.4 km/h 87 % 0 mm 0 W/m2
00:32 3.6 °C 1.5 °C 1016.8 hPa West 22.5 km/h 37 km/h 86 % 0 mm 0 W/m2
00:37 3.7 °C 1.6 °C 1017.2 hPa West 22.5 km/h 35.4 km/h 86 % 0 mm 0 W/m2
00:43 3.7 °C 1.6 °C 1017.2 hPa West 22.5 km/h 37 km/h 86 % 0 mm 0 W/m2
00:48 3.7 °C 1.6 °C 1017.2 hPa West 22.5 km/h 33.8 km/h 86 % 0 mm 0 W/m2
00:53 3.7 °C 1.6 °C 1017.2 hPa West 25.7 km/h 38.6 km/h 86 % 0 mm 0 W/m2
00:58 3.7 °C 1.6 °C 1017.2 hPa West 20.9 km/h 40.2 km/h 86 % 0 mm 0 W/m2
01:03 3.7 °C 1.6 °C 1016.8 hPa WNW 25.7 km/h 49.9 km/h 86 % 0 mm 0 W/m2
01:08 3.7 °C 1.6 °C 1016.8 hPa West 27.4 km/h 45.1 km/h 86 % 0 mm 0 W/m2
01:13 3.7 °C 1.6 °C 1017.2 hPa West 22.5 km/h 33.8 km/h 86 % 0 mm 0 W/m2
01:18 3.6 °C 1.5 °C 1017.2 hPa West 17.7 km/h 33.8 km/h 86 % 0 mm 0 W/m2
01:23 3.6 °C 1.5 °C 1017.5 hPa West 22.5 km/h 32.2 km/h 86 % 0 mm 0 W/m2
01:33 3.6 °C 1.5 °C 1017.5 hPa WNW 22.5 km/h 33.8 km/h 86 % 0 mm 0 W/m2
01:38 3.6 °C 1.5 °C 1017.8 hPa WNW 17.7 km/h 33.8 km/h 86 % 0 mm 0 W/m2
01:43 3.6 °C 1.5 °C 1017.8 hPa WNW 16.1 km/h 24.1 km/h 86 % 0 mm 0 W/m2
01:48 3.5 °C 1.4 °C 1017.8 hPa WNW 19.3 km/h 32.2 km/h 86 % 0 mm 0 W/m2
01:53 3.5 °C 1.4 °C 1018.2 hPa WNW 20.9 km/h 33.8 km/h 86 % 0 mm 0 W/m2
01:58 3.4 °C 1.3 °C 1017.8 hPa WNW 14.5 km/h 20.9 km/h 86 % 0 mm 0 W/m2
02:03 3.3 °C 1.2 °C 1017.8 hPa WNW 16.1 km/h 22.5 km/h 86 % 0 mm 0 W/m2
02:08 3.3 °C 1.2 °C 1017.8 hPa WNW 16.1 km/h 22.5 km/h 86 % 0 mm 0 W/m2
02:13 3.2 °C 1.1 °C 1017.8 hPa WNW 12.9 km/h 20.9 km/h 86 % 0 mm 0 W/m2
02:18 3.3 °C 1.3 °C 1018.2 hPa West 19.3 km/h 32.2 km/h 87 % 0 mm 0 W/m2
02:23 3.3 °C 1.3 °C 1018.2 hPa West 16.1 km/h 24.1 km/h 87 % 0 mm 0 W/m2
02:28 3.3 °C 1.3 °C 1018.2 hPa WNW 14.5 km/h 19.3 km/h 87 % 0 mm 0 W/m2
02:33 3.3 °C 1.3 °C 1018.2 hPa WNW 11.3 km/h 19.3 km/h 87 % 0 mm 0 W/m2
02:38 3.3 °C 1.5 °C 1018.2 hPa WNW 14.5 km/h 22.5 km/h 88 % 0 mm 0 W/m2
02:43 3.3 °C 1.5 °C 1018.2 hPa WNW 16.1 km/h 29 km/h 88 % 0 mm 0 W/m2
02:48 3.3 °C 1.5 °C 1018.2 hPa WNW 14.5 km/h 20.9 km/h 88 % 0 mm 0 W/m2
02:53 3.4 °C 1.6 °C 1018.2 hPa WNW 16.1 km/h 24.1 km/h 88 % 0 mm 0 W/m2
02:58 3.4 °C 1.6 °C 1018.2 hPa West 19.3 km/h 32.2 km/h 88 % 0 mm 0 W/m2
03:00 3.4 °C 1.6 °C 1018.2 hPa West 16.1 km/h 24.1 km/h 88 % 0 mm 0 W/m2
03:05 3.6 °C 1.8 °C 1018.2 hPa WNW 17.7 km/h 25.7 km/h 88 % 0 mm 0 W/m2
03:10 3.6 °C 1.8 °C 1018.2 hPa WNW 17.7 km/h 29 km/h 88 % 0 mm 0 W/m2
03:15 3.6 °C 1.8 °C 1018.2 hPa WNW 17.7 km/h 24.1 km/h 88 % 0 mm 0 W/m2
03:16 3.6 °C 1.8 °C 1018.2 hPa WNW 17.7 km/h 25.7 km/h 88 % 0 mm 0 W/m2
03:21 3.7 °C 1.9 °C 1018.2 hPa WNW 16.1 km/h 22.5 km/h 88 % 0 mm 0 W/m2
03:26 3.7 °C 1.9 °C 1018.2 hPa WNW 19.3 km/h 30.6 km/h 88 % 0 mm 0 W/m2
03:31 3.7 °C 1.7 °C 1018.2 hPa WNW 12.9 km/h 20.9 km/h 87 % 0 mm 0 W/m2
03:36 3.7 °C 1.7 °C 1018.2 hPa WNW 19.3 km/h 30.6 km/h 87 % 0 mm 0 W/m2
03:41 3.6 °C 1.8 °C 1018.2 hPa WNW 17.7 km/h 25.7 km/h 88 % 0 mm 0 W/m2
03:46 3.6 °C 1.8 °C 1018.2 hPa WNW 17.7 km/h 30.6 km/h 88 % 0 mm 0 W/m2
03:51 3.6 °C 1.8 °C 1018.2 hPa WNW 16.1 km/h 24.1 km/h 88 % 0 mm 0 W/m2
03:56 3.6 °C 1.8 °C 1018.5 hPa WNW 16.1 km/h 22.5 km/h 88 % 0 mm 0 W/m2
04:01 3.6 °C 1.8 °C 1018.5 hPa WNW 14.5 km/h 22.5 km/h 88 % 0 mm 0 W/m2
04:06 3.6 °C 1.8 °C 1018.2 hPa WNW 11.3 km/h 19.3 km/h 88 % 0 mm 0 W/m2
04:11 3.5 °C 1.6 °C 1018.2 hPa WNW 12.9 km/h 19.3 km/h 87 % 0 mm 0 W/m2
04:16 3.4 °C 1.6 °C 1018.2 hPa WNW 12.9 km/h 25.7 km/h 88 % 0 mm 0 W/m2
04:21 3.4 °C 1.4 °C 1018.2 hPa WNW 12.9 km/h 20.9 km/h 87 % 0 mm 0 W/m2
04:26 3.4 °C 1.4 °C 1018.2 hPa WNW 9.7 km/h 17.7 km/h 87 % 0 mm 0 W/m2
04:31 3.3 °C 1.5 °C 1018.2 hPa WNW 11.3 km/h 17.7 km/h 88 % 0 mm 0 W/m2
04:36 3.3 °C 1.5 °C 1018.2 hPa WNW 14.5 km/h 25.7 km/h 88 % 0 mm 0 W/m2
04:41 3.4 °C 1.6 °C 1018.2 hPa WNW 14.5 km/h 20.9 km/h 88 % 0 mm 0 W/m2
04:46 3.4 °C 1.6 °C 1018.2 hPa WNW 14.5 km/h 22.5 km/h 88 % 0 mm 0 W/m2
04:51 3.4 °C 1.6 °C 1018.2 hPa West 17.7 km/h 30.6 km/h 88 % 0 mm 0 W/m2
04:56 3.5 °C 1.7 °C 1018.2 hPa WNW 19.3 km/h 25.7 km/h 88 % 0 mm 0 W/m2
05:02 3.6 °C 1.8 °C 1018.2 hPa WNW 22.5 km/h 32.2 km/h 88 % 0 mm 0 W/m2
05:07 3.6 °C 1.8 °C 1018.2 hPa WNW 22.5 km/h 33.8 km/h 88 % 0 mm 0 W/m2
05:12 3.6 °C 1.8 °C 1018.2 hPa WNW 19.3 km/h 32.2 km/h 88 % 0 mm 0 W/m2
05:17 3.6 °C 1.8 °C 1018.5 hPa WNW 19.3 km/h 29 km/h 88 % 0 mm 0 W/m2
05:22 3.7 °C 1.9 °C 1018.5 hPa WNW 22.5 km/h 33.8 km/h 88 % 0 mm 0 W/m2
05:27 3.7 °C 1.7 °C 1018.5 hPa WNW 19.3 km/h 32.2 km/h 87 % 0 mm 0 W/m2
05:32 3.6 °C 1.6 °C 1018.5 hPa WNW 19.3 km/h 30.6 km/h 87 % 0 mm 0 W/m2
05:37 3.6 °C 1.6 °C 1018.5 hPa WNW 20.9 km/h 32.2 km/h 87 % 0 mm 0 W/m2
05:42 3.6 °C 1.6 °C 1018.5 hPa West 19.3 km/h 33.8 km/h 87 % 0 mm 0 W/m2
05:47 3.6 °C 1.8 °C 1018.8 hPa WNW 17.7 km/h 25.7 km/h 88 % 0 mm 0 W/m2
05:52 3.7 °C 1.9 °C 1018.8 hPa WNW 17.7 km/h 33.8 km/h 88 % 0 mm 0 W/m2
06:02 3.8 °C 2 °C 1019.2 hPa WNW 20.9 km/h 30.6 km/h 88 % 0 mm 0 W/m2
06:07 3.8 °C 1.8 °C 1019.2 hPa WNW 16.1 km/h 24.1 km/h 87 % 0 mm 0 W/m2
06:12 3.8 °C 1.8 °C 1019.2 hPa WNW 17.7 km/h 24.1 km/h 87 % 0 mm 0 W/m2
06:17 3.8 °C 1.7 °C 1019.5 hPa WNW 16.1 km/h 25.7 km/h 86 % 0 mm 0 W/m2
06:22 3.8 °C 1.7 °C 1019.5 hPa WNW 14.5 km/h 20.9 km/h 86 % 0 mm 0 W/m2
06:27 3.8 °C 1.7 °C 1019.5 hPa WNW 11.3 km/h 19.3 km/h 86 % 0 mm 0 W/m2
06:32 3.8 °C 1.5 °C 1019.5 hPa WNW 12.9 km/h 20.9 km/h 85 % 0 mm 0 W/m2
06:37 3.8 °C 1.5 °C 1019.5 hPa WNW 14.5 km/h 22.5 km/h 85 % 0 mm 0 W/m2
06:42 3.8 °C 1.5 °C 1019.5 hPa WNW 11.3 km/h 19.3 km/h 85 % 0 mm 0 W/m2
06:52 3.9 °C 1.6 °C 1019.5 hPa West 19.3 km/h 30.6 km/h 85 % 0 mm 0 W/m2
06:57 3.9 °C 1.6 °C 1019.9 hPa West 19.3 km/h 35.4 km/h 85 % 0 mm 0 W/m2
07:02 3.9 °C 1.6 °C 1019.5 hPa West 16.1 km/h 20.9 km/h 85 % 0 mm 0 W/m2
07:07 3.8 °C 1.5 °C 1019.9 hPa WNW 17.7 km/h 29 km/h 85 % 0 mm 0 W/m2
07:12 3.8 °C 1.5 °C 1019.9 hPa WNW 16.1 km/h 24.1 km/h 85 % 0 mm 0 W/m2
07:17 3.8 °C 1.7 °C 1019.9 hPa West 16.1 km/h 22.5 km/h 86 % 0 mm 0 W/m2
07:22 3.8 °C 1.7 °C 1019.9 hPa WNW 14.5 km/h 20.9 km/h 86 % 0 mm 0 W/m2
07:27 3.8 °C 1.7 °C 1020.2 hPa WNW 9.7 km/h 16.1 km/h 86 % 0 mm 0 W/m2
07:32 3.8 °C 1.7 °C 1020.2 hPa WNW 11.3 km/h 19.3 km/h 86 % 0 mm 0 W/m2
07:37 3.8 °C 1.8 °C 1020.2 hPa WNW 17.7 km/h 30.6 km/h 87 % 0 mm 0 W/m2
07:43 3.9 °C 1.9 °C 1020.2 hPa West 19.3 km/h 30.6 km/h 87 % 0 mm 0 W/m2
07:48 3.9 °C 1.9 °C 1020.2 hPa WNW 17.7 km/h 24.1 km/h 87 % 0 mm 0 W/m2
07:53 3.9 °C 1.9 °C 1020.5 hPa WNW 16.1 km/h 24.1 km/h 87 % 0 mm 0 W/m2
07:58 3.8 °C 1.8 °C 1020.5 hPa WNW 12.9 km/h 17.7 km/h 87 % 0 mm 5 W/m2
08:03 3.8 °C 1.8 °C 1020.5 hPa WNW 14.5 km/h 19.3 km/h 87 % 0 mm 7 W/m2
08:06 3.7 °C 1.7 °C 1020.5 hPa WNW 12.9 km/h 17.7 km/h 87 % 0 mm 9 W/m2
08:11 3.7 °C 1.7 °C 1020.5 hPa WNW 14.5 km/h 24.1 km/h 87 % 0 mm 12 W/m2
08:16 3.7 °C 1.7 °C 1020.5 hPa West 14.5 km/h 25.7 km/h 87 % 0 mm 12 W/m2
08:21 3.6 °C 1.5 °C 1020.5 hPa WNW 14.5 km/h 24.1 km/h 86 % 0 mm 23 W/m2
08:26 3.6 °C 1.5 °C 1020.5 hPa West 14.5 km/h 29 km/h 86 % 0 mm 25 W/m2
08:31 3.7 °C 1.6 °C 1020.5 hPa WNW 14.5 km/h 24.1 km/h 86 % 0 mm 16 W/m2
08:36 3.7 °C 1.6 °C 1020.9 hPa WNW 16.1 km/h 29 km/h 86 % 0 mm 25 W/m2
08:41 3.7 °C 1.7 °C 1020.9 hPa WNW 12.9 km/h 19.3 km/h 87 % 0 mm 42 W/m2
08:46 3.7 °C 1.7 °C 1020.9 hPa West 14.5 km/h 20.9 km/h 87 % 0 mm 46 W/m2
08:51 3.7 °C 1.7 °C 1020.9 hPa WNW 12.9 km/h 20.9 km/h 87 % 0 mm 51 W/m2
08:56 3.7 °C 1.7 °C 1020.9 hPa WNW 9.7 km/h 14.5 km/h 87 % 0 mm 47 W/m2
09:01 3.8 °C 1.8 °C 1020.9 hPa WNW 11.3 km/h 22.5 km/h 87 % 0 mm 54 W/m2
09:06 3.9 °C 1.9 °C 1020.9 hPa WNW 14.5 km/h 22.5 km/h 87 % 0 mm 44 W/m2
09:11 4.1 °C 1.9 °C 1020.9 hPa WNW 16.1 km/h 25.7 km/h 86 % 0 mm 37 W/m2
09:16 4.2 °C 2.1 °C 1020.5 hPa WNW 17.7 km/h 29 km/h 86 % 0 mm 39 W/m2
09:21 4.2 °C 2.1 °C 1020.9 hPa WNW 16.1 km/h 24.1 km/h 86 % 0 mm 49 W/m2
09:32 4.3 °C 2.2 °C 1020.9 hPa WNW 19.3 km/h 25.7 km/h 86 % 0 mm 51 W/m2
09:37 4.4 °C 2.1 °C 1020.9 hPa WNW 14.5 km/h 20.9 km/h 85 % 0 mm 53 W/m2
09:42 4.3 °C 2 °C 1020.9 hPa WNW 11.3 km/h 16.1 km/h 85 % 0 mm 107 W/m2
09:47 4.4 °C 2.3 °C 1020.9 hPa WNW 11.3 km/h 16.1 km/h 86 % 0 mm 88 W/m2
09:52 4.4 °C 2.3 °C 1020.9 hPa WNW 9.7 km/h 16.1 km/h 86 % 0 mm 56 W/m2
09:57 4.4 °C 2.1 °C 1020.9 hPa WNW 12.9 km/h 22.5 km/h 85 % 0 mm 98 W/m2
10:02 4.5 °C 2.3 °C 1021.2 hPa WNW 17.7 km/h 25.7 km/h 86 % 0 mm 72 W/m2
10:07 4.5 °C 2.2 °C 1020.9 hPa West 14.5 km/h 20.9 km/h 85 % 0 mm 54 W/m2
10:12 4.5 °C 2.2 °C 1020.9 hPa WNW 11.3 km/h 16.1 km/h 85 % 0 mm 44 W/m2
10:17 4.4 °C 2.1 °C 1021.2 hPa WNW 12.9 km/h 20.9 km/h 85 % 0 mm 155 W/m2
10:22 4.6 °C 2.4 °C 1021.2 hPa WNW 16.1 km/h 24.1 km/h 86 % 0 mm 290 W/m2
10:27 4.7 °C 2.4 °C 1021.2 hPa WNW 12.9 km/h 22.5 km/h 85 % 0 mm 51 W/m2
10:32 4.7 °C 2.4 °C 1021.2 hPa WNW 12.9 km/h 20.9 km/h 85 % 0 mm 54 W/m2
10:37 4.7 °C 2.4 °C 1021.2 hPa WNW 14.5 km/h 22.5 km/h 85 % 0 mm 179 W/m2
10:42 4.8 °C 2.7 °C 1021.2 hPa WNW 16.1 km/h 25.7 km/h 86 % 0 mm 144 W/m2
10:43 4.8 °C 2.7 °C 1021.2 hPa WNW 16.1 km/h 25.7 km/h 86 % 0 mm 139 W/m2
10:48 4.8 °C 2.7 °C 1021.6 hPa WNW 16.1 km/h 24.1 km/h 86 % 0 mm 111 W/m2
10:53 4.8 °C 2.5 °C 1021.6 hPa WNW 9.7 km/h 16.1 km/h 85 % 0 mm 98 W/m2
10:58 4.9 °C 2.6 °C 1021.2 hPa WNW 11.3 km/h 16.1 km/h 85 % 0 mm 120 W/m2
11:03 4.9 °C 2.6 °C 1021.2 hPa WNW 4.8 km/h 12.9 km/h 85 % 0 mm 90 W/m2
11:08 5 °C 2.7 °C 1021.2 hPa NW 1.6 km/h 6.4 km/h 85 % 0 mm 95 W/m2
11:13 5.1 °C 2.8 °C 1021.2 hPa West 11.3 km/h 17.7 km/h 85 % 0 mm 76 W/m2
11:18 5.2 °C 2.9 °C 1021.2 hPa WNW 14.5 km/h 22.5 km/h 85 % 0 mm 72 W/m2
11:23 5.2 °C 2.7 °C 1020.9 hPa West 16.1 km/h 24.1 km/h 84 % 0 mm 98 W/m2
11:28 5.3 °C 2.8 °C 1021.2 hPa West 11.3 km/h 19.3 km/h 84 % 0 mm 118 W/m2
11:33 5.3 °C 2.8 °C 1021.2 hPa West 16.1 km/h 24.1 km/h 84 % 0 mm 93 W/m2
11:39 5.3 °C 2.8 °C 1021.2 hPa WNW 11.3 km/h 17.7 km/h 84 % 0 mm 102 W/m2
11:44 5.3 °C 3 °C 1021.2 hPa WNW 9.7 km/h 14.5 km/h 85 % 0 mm 81 W/m2
11:49 5.3 °C 2.8 °C 1021.2 hPa West 11.3 km/h 20.9 km/h 84 % 0 mm 76 W/m2
11:54 5.3 °C 2.8 °C 1021.2 hPa WNW 9.7 km/h 19.3 km/h 84 % 0 mm 97 W/m2
11:59 5.3 °C 2.8 °C 1021.6 hPa West 11.3 km/h 19.3 km/h 84 % 0 mm 141 W/m2
12:04 5.3 °C 2.8 °C 1021.6 hPa WNW 9.7 km/h 14.5 km/h 84 % 0 mm 105 W/m2
12:09 5.4 °C 2.9 °C 1021.6 hPa West 12.9 km/h 19.3 km/h 84 % 0 mm 90 W/m2
12:14 5.5 °C 3 °C 1021.6 hPa WNW 16.1 km/h 22.5 km/h 84 % 0 mm 77 W/m2
12:18 5.6 °C 3.1 °C 1021.6 hPa WNW 14.5 km/h 20.9 km/h 84 % 0 mm 74 W/m2
12:23 5.6 °C 3.1 °C 1021.2 hPa WNW 17.7 km/h 30.6 km/h 84 % 0 mm 76 W/m2
12:28 5.5 °C 3 °C 1021.6 hPa WNW 16.1 km/h 25.7 km/h 84 % 0 mm 83 W/m2
12:33 5.5 °C 3 °C 1021.6 hPa WNW 14.5 km/h 20.9 km/h 84 % 0 mm 88 W/m2
12:38 5.5 °C 3 °C 1021.6 hPa WNW 14.5 km/h 22.5 km/h 84 % 0 mm 72 W/m2
12:43 5.6 °C 2.9 °C 1021.6 hPa WNW 14.5 km/h 24.1 km/h 83 % 0 mm 90 W/m2
12:48 5.6 °C 2.9 °C 1021.6 hPa WNW 16.1 km/h 25.7 km/h 83 % 0 mm 105 W/m2
12:53 5.7 °C 2.9 °C 1021.2 hPa WNW 17.7 km/h 29 km/h 82 % 0 mm 97 W/m2
12:58 5.7 °C 2.9 °C 1021.6 hPa WNW 17.7 km/h 29 km/h 82 % 0 mm 81 W/m2
13:03 5.7 °C 2.7 °C 1021.2 hPa WNW 17.7 km/h 25.7 km/h 81 % 0 mm 63 W/m2
13:08 5.7 °C 2.7 °C 1021.6 hPa West 19.3 km/h 30.6 km/h 81 % 0 mm 51 W/m2
13:13 5.6 °C 2.9 °C 1021.6 hPa WNW 20.9 km/h 33.8 km/h 83 % 0 mm 53 W/m2
13:19 5.5 °C 3.2 °C 1021.6 hPa WNW 14.5 km/h 25.7 km/h 85 % 0 mm 60 W/m2
13:24 5.3 °C 3 °C 1021.6 hPa West 16.1 km/h 22.5 km/h 85 % 0 mm 83 W/m2
13:29 5.2 °C 3.1 °C 1021.6 hPa West 12.9 km/h 20.9 km/h 86 % 0 mm 142 W/m2
13:34 5.1 °C 3.1 °C 1021.2 hPa West 14.5 km/h 24.1 km/h 87 % 0 mm 60 W/m2
13:39 5 °C 3 °C 1021.2 hPa West 14.5 km/h 20.9 km/h 87 % 0 mm 56 W/m2
13:44 4.9 °C 2.9 °C 1021.2 hPa West 14.5 km/h 20.9 km/h 87 % 0 mm 100 W/m2
13:49 5 °C 3 °C 1021.2 hPa WNW 14.5 km/h 19.3 km/h 87 % 0 mm 199 W/m2
13:59 5.4 °C 3.4 °C 1021.2 hPa West 8 km/h 14.5 km/h 87 % 0 mm 188 W/m2
14:04 5.7 °C 3.6 °C 1021.2 hPa West 9.7 km/h 14.5 km/h 86 % 0 mm 70 W/m2
14:09 5.8 °C 3.6 °C 1021.2 hPa WNW 14.5 km/h 24.1 km/h 86 % 0 mm 90 W/m2
14:14 5.8 °C 3.3 °C 1021.2 hPa WNW 12.9 km/h 22.5 km/h 84 % 0 mm 51 W/m2
14:19 5.8 °C 3.3 °C 1021.2 hPa West 11.3 km/h 16.1 km/h 84 % 0 mm 70 W/m2
14:24 5.8 °C 3.3 °C 1021.2 hPa West 11.3 km/h 16.1 km/h 84 % 0 mm 76 W/m2
14:34 6.1 °C 3.6 °C 1021.2 hPa WSW 6.4 km/h 12.9 km/h 84 % 0 mm 172 W/m2
14:39 6.2 °C 3.7 °C 1021.2 hPa WNW 3.2 km/h 11.3 km/h 84 % 0 mm 69 W/m2
14:44 6.2 °C 3.5 °C 1021.2 hPa West 8 km/h 12.9 km/h 83 % 0 mm 121 W/m2
14:49 6.2 °C 3.5 °C 1021.2 hPa WSW 6.4 km/h 11.3 km/h 83 % 0 mm 58 W/m2
14:54 6.2 °C 3.5 °C 1021.2 hPa West 6.4 km/h 9.7 km/h 83 % 0 mm 98 W/m2
14:59 6.2 °C 3.5 °C 1021.2 hPa WNW 9.7 km/h 17.7 km/h 83 % 0 mm 67 W/m2
15:04 6.2 °C 3.5 °C 1021.2 hPa West 14.5 km/h 20.9 km/h 83 % 0 mm 28 W/m2
15:09 6.2 °C 3.5 °C 1021.2 hPa WNW 14.5 km/h 20.9 km/h 83 % 0 mm 18 W/m2
15:14 6.1 °C 3.4 °C 1021.2 hPa WNW 12.9 km/h 20.9 km/h 83 % 0 mm 16 W/m2
15:19 5.9 °C 3.4 °C 1021.2 hPa WNW 9.7 km/h 19.3 km/h 84 % 0 mm 16 W/m2
15:24 5.9 °C 3.4 °C 1021.2 hPa WNW 8 km/h 14.5 km/h 84 % 0 mm 14 W/m2
15:29 5.8 °C 3.3 °C 1021.2 hPa WNW 4.8 km/h 9.7 km/h 84 % 0 mm 12 W/m2
15:34 5.7 °C 3.2 °C 1021.2 hPa West 8 km/h 12.9 km/h 84 % 0 mm 11 W/m2
15:40 5.6 °C 3.1 °C 1021.2 hPa West 6.4 km/h 14.5 km/h 84 % 0 mm 11 W/m2
15:41 5.6 °C 3.1 °C 1021.2 hPa West 4.8 km/h 9.7 km/h 84 % 0 mm 12 W/m2
15:46 5.4 °C 2.9 °C 1021.2 hPa WNW 11.3 km/h 19.3 km/h 84 % 0 mm 9 W/m2
15:51 5.4 °C 3.1 °C 1021.2 hPa West 12.9 km/h 19.3 km/h 85 % 0 mm 7 W/m2
15:56 5.4 °C 3.1 °C 1020.9 hPa WNW 16.1 km/h 22.5 km/h 85 % 0 mm 5 W/m2
16:01 5.4 °C 3.1 °C 1020.9 hPa WNW 11.3 km/h 22.5 km/h 85 % 0 mm 0 W/m2
16:06 5.4 °C 3.1 °C 1020.9 hPa West 11.3 km/h 20.9 km/h 85 % 0 mm 0 W/m2
16:11 5.3 °C 3 °C 1020.9 hPa West 9.7 km/h 17.7 km/h 85 % 0 mm 0 W/m2
16:16 5.2 °C 3.1 °C 1020.9 hPa West 8 km/h 12.9 km/h 86 % 0 mm 0 W/m2
16:21 5.1 °C 2.9 °C 1020.9 hPa West 3.2 km/h 12.9 km/h 86 % 0 mm 0 W/m2
16:26 5 °C 2.8 °C 1020.9 hPa West 6.4 km/h 9.7 km/h 86 % 0 mm 0 W/m2
16:31 5.1 °C 3.1 °C 1020.5 hPa West 12.9 km/h 22.5 km/h 87 % 0 mm 0 W/m2
16:36 5.1 °C 3.1 °C 1020.5 hPa WNW 8 km/h 12.9 km/h 87 % 0 mm 0 W/m2
16:41 5 °C 3 °C 1020.5 hPa WNW 11.3 km/h 19.3 km/h 87 % 0 mm 0 W/m2
16:46 5 °C 3 °C 1020.9 hPa WNW 8 km/h 12.9 km/h 87 % 0 mm 0 W/m2
16:51 4.9 °C 2.9 °C 1020.9 hPa West 6.4 km/h 11.3 km/h 87 % 0 mm 0 W/m2
16:56 4.9 °C 2.9 °C 1020.9 hPa West 8 km/h 12.9 km/h 87 % 0 mm 0 W/m2
17:01 5 °C 3 °C 1020.9 hPa West 4.8 km/h 9.7 km/h 87 % 0 mm 0 W/m2
17:06 5 °C 3 °C 1020.9 hPa WNW 6.4 km/h 9.7 km/h 87 % 0 mm 0 W/m2
17:11 5.1 °C 3.1 °C 1020.9 hPa West 6.4 km/h 11.3 km/h 87 % 0 mm 0 W/m2
17:16 5.1 °C 3.1 °C 1020.9 hPa West 3.2 km/h 8 km/h 87 % 0 mm 0 W/m2
17:21 5.1 °C 3.1 °C 1020.9 hPa WSW 6.4 km/h 11.3 km/h 87 % 0 mm 0 W/m2
17:31 5 °C 3 °C 1020.5 hPa WSW 4.8 km/h 14.5 km/h 87 % 0 mm 0 W/m2
17:37 5.1 °C 3.1 °C 1020.5 hPa WSW 6.4 km/h 11.3 km/h 87 % 0 mm 0 W/m2
17:42 5.2 °C 3.2 °C 1020.5 hPa WSW 1.6 km/h 6.4 km/h 87 % 0 mm 0 W/m2
17:47 5.1 °C 3.1 °C 1020.5 hPa WSW 3.2 km/h 8 km/h 87 % 0 mm 0 W/m2
17:52 5.1 °C 3.1 °C 1020.5 hPa WSW 11.3 km/h 16.1 km/h 87 % 0 mm 0 W/m2
17:57 5.2 °C 3.2 °C 1020.5 hPa WSW 4.8 km/h 8 km/h 87 % 0 mm 0 W/m2
18:02 5.1 °C 3.1 °C 1020.2 hPa SW 1.6 km/h 6.4 km/h 87 % 0 mm 0 W/m2
18:07 5 °C 3 °C 1020.2 hPa Calm   3.2 km/h 87 % 0 mm 0 W/m2
18:12 4.9 °C 2.9 °C 1020.5 hPa Calm     87 % 0 mm 0 W/m2
18:17 4.8 °C 2.8 °C 1020.2 hPa Calm   3.2 km/h 87 % 0 mm 0 W/m2
18:22 4.7 °C 2.9 °C 1020.2 hPa Calm   3.2 km/h 88 % 0 mm 0 W/m2
18:27 4.7 °C 2.9 °C 1020.2 hPa SW 3.2 km/h 8 km/h 88 % 0 mm 0 W/m2
18:32 4.7 °C 3.1 °C 1020.2 hPa WSW 6.4 km/h 12.9 km/h 89 % 0 mm 0 W/m2
18:37 4.8 °C 3.2 °C 1020.5 hPa West 11.3 km/h 19.3 km/h 89 % 0 mm 0 W/m2
18:42 4.9 °C 3.4 °C 1020.2 hPa WSW 11.3 km/h 14.5 km/h 90 % 0 mm 0 W/m2
18:47 5.1 °C 3.6 °C 1020.5 hPa WSW 9.7 km/h 17.7 km/h 90 % 0 mm 0 W/m2
18:52 5.2 °C 3.7 °C 1020.2 hPa WSW 11.3 km/h 19.3 km/h 90 % 0 mm 0 W/m2
18:57 5.3 °C 3.8 °C 1020.2 hPa WSW 9.7 km/h 14.5 km/h 90 % 0 mm 0 W/m2
19:02 5.4 °C 3.9 °C 1020.2 hPa WSW 9.7 km/h 14.5 km/h 90 % 0 mm 0 W/m2
19:07 5.4 °C 3.9 °C 1020.2 hPa WSW 11.3 km/h 16.1 km/h 90 % 0 mm 0 W/m2
19:12 5.5 °C 4 °C 1020.2 hPa WSW 11.3 km/h 17.7 km/h 90 % 0 mm 0 W/m2
19:17 5.5 °C 4 °C 1020.2 hPa West 9.7 km/h 14.5 km/h 90 % 0 mm 0 W/m2
19:28 5.4 °C 3.9 °C 1019.9 hPa WSW 9.7 km/h 14.5 km/h 90 % 0 mm 0 W/m2
19:33 5.4 °C 3.9 °C 1019.9 hPa WSW 9.7 km/h 14.5 km/h 90 % 0 mm 0 W/m2
19:38 5.3 °C 3.8 °C 1019.9 hPa WSW 9.7 km/h 14.5 km/h 90 % 0 mm 0 W/m2
19:43 5.3 °C 3.8 °C 1019.9 hPa WSW 6.4 km/h 11.3 km/h 90 % 0 mm 0 W/m2
19:48 5.3 °C 3.6 °C 1019.5 hPa SW 4.8 km/h 8 km/h 89 % 0 mm 0 W/m2
19:53 5.3 °C 3.6 °C 1019.5 hPa SW 4.8 km/h 11.3 km/h 89 % 0 mm 0 W/m2
19:58 5.3 °C 3.6 °C 1019.5 hPa SW 3.2 km/h 8 km/h 89 % 0 mm 0 W/m2
20:03 5.3 °C 3.6 °C 1019.2 hPa SW 6.4 km/h 19.3 km/h 89 % 0 mm 0 W/m2
20:08 5.3 °C 3.6 °C 1019.2 hPa SSW 3.2 km/h 9.7 km/h 89 % 0 mm 0 W/m2
20:13 5.2 °C 3.6 °C 1019.2 hPa SW 6.4 km/h 11.3 km/h 89 % 0 mm 0 W/m2
20:18 5.2 °C 3.6 °C 1019.2 hPa SW 3.2 km/h 9.7 km/h 89 % 0 mm 0 W/m2
20:28 5.2 °C 3.4 °C 1018.8 hPa SW 6.4 km/h 9.7 km/h 88 % 0 mm 0 W/m2
20:33 5.2 °C 3.6 °C 1018.8 hPa SW 6.4 km/h 11.3 km/h 89 % 0 mm 0 W/m2
20:38 5.2 °C 3.6 °C 1018.5 hPa SW 8 km/h 11.3 km/h 89 % 0 mm 0 W/m2
20:43 5.3 °C 3.6 °C 1018.5 hPa SW 6.4 km/h 12.9 km/h 89 % 0 mm 0 W/m2
20:48 5.4 °C 3.7 °C 1018.2 hPa SSW 8 km/h 14.5 km/h 89 % 0 mm 0 W/m2
20:53 5.5 °C 3.7 °C 1018.2 hPa South 6.4 km/h 12.9 km/h 88 % 0 mm 0 W/m2
20:58 5.6 °C 3.8 °C 1018.2 hPa SSW 6.4 km/h 14.5 km/h 88 % 0 mm 0 W/m2
21:03 5.7 °C 3.9 °C 1017.8 hPa South 9.7 km/h 12.9 km/h 88 % 0 mm 0 W/m2
21:04 5.7 °C 3.9 °C 1017.8 hPa SSW 8 km/h 12.9 km/h 88 % 0 mm 0 W/m2
21:09 5.8 °C 3.8 °C 1017.8 hPa SSW 8 km/h 11.3 km/h 87 % 0 mm 0 W/m2
21:14 5.8 °C 3.8 °C 1017.8 hPa SSW 6.4 km/h 12.9 km/h 87 % 0 mm 0 W/m2
21:19 5.8 °C 3.8 °C 1017.5 hPa SW 8 km/h 14.5 km/h 87 % 0 mm 0 W/m2
21:24 5.8 °C 3.8 °C 1017.5 hPa SSW 6.4 km/h 9.7 km/h 87 % 0 mm 0 W/m2
21:29 5.8 °C 3.9 °C 1017.5 hPa SSW 8 km/h 14.5 km/h 88 % 0 mm 0 W/m2
21:34 5.9 °C 4.1 °C 1017.2 hPa SSW 8 km/h 12.9 km/h 88 % 0 mm 0 W/m2
21:39 5.9 °C 4.2 °C 1017.2 hPa SSW 8 km/h 12.9 km/h 89 % 0 mm 0 W/m2
21:44 5.9 °C 4.2 °C 1017.2 hPa SSW 9.7 km/h 19.3 km/h 89 % 0 mm 0 W/m2
21:49 5.9 °C 4.2 °C 1017.2 hPa SSW 9.7 km/h 16.1 km/h 89 % 0 mm 0 W/m2
21:54 5.9 °C 4.2 °C 1016.8 hPa SSW 12.9 km/h 19.3 km/h 89 % 0 mm 0 W/m2
21:59 5.9 °C 4.4 °C 1016.8 hPa South 14.5 km/h 20.9 km/h 90 % 0 mm 0 W/m2
22:04 5.9 °C 4.4 °C 1016.5 hPa SSW 9.7 km/h 16.1 km/h 90 % 0 mm 0 W/m2
22:09 5.8 °C 4.3 °C 1016.5 hPa SSW 11.3 km/h 17.7 km/h 90 % 0 mm 0 W/m2
22:14 5.8 °C 4.3 °C 1016.5 hPa South 9.7 km/h 14.5 km/h 90 % 0 mm 0 W/m2
22:19 5.7 °C 4.2 °C 1016.1 hPa SSW 8 km/h 11.3 km/h 90 % 0 mm 0 W/m2
22:24 5.7 °C 4.3 °C 1016.1 hPa SSW 8 km/h 11.3 km/h 91 % 0 mm 0 W/m2
22:29 5.7 °C 4.3 °C 1015.8 hPa SSW 9.7 km/h 12.9 km/h 91 % 0 mm 0 W/m2
22:34 5.8 °C 4.4 °C 1015.8 hPa SSW 8 km/h 11.3 km/h 91 % 0 mm 0 W/m2
22:39 5.8 °C 4.4 °C 1015.8 hPa SSW 8 km/h 12.9 km/h 91 % 0 mm 0 W/m2
22:44 5.9 °C 4.6 °C 1015.8 hPa SSW 6.4 km/h 11.3 km/h 91 % 0 mm 0 W/m2
22:49 6 °C 4.7 °C 1015.8 hPa SSW 4.8 km/h 11.3 km/h 91 % 0 mm 0 W/m2
22:54 6.1 °C 4.7 °C 1015.5 hPa SSW 6.4 km/h 9.7 km/h 91 % 0 mm 0 W/m2
22:59 6.1 °C 4.7 °C 1015.5 hPa SSW 8 km/h 14.5 km/h 91 % 0 mm 0 W/m2
23:04 6.2 °C 5 °C 1015.1 hPa SSW 6.4 km/h 11.3 km/h 92 % 0 mm 0 W/m2
23:09 6.3 °C 5.1 °C 1014.8 hPa SSW 12.9 km/h 17.7 km/h 92 % 0 mm 0 W/m2
23:14 6.5 °C 5.3 °C 1014.8 hPa SW 11.3 km/h 20.9 km/h 92 % 0 mm 0 W/m2
23:19 6.6 °C 5.4 °C 1014.4 hPa SW 8 km/h 12.9 km/h 92 % 0 mm 0 W/m2
23:24 6.8 °C 5.7 °C 1014.1 hPa SW 12.9 km/h 20.9 km/h 93 % 0 mm 0 W/m2
23:29 7.4 °C 6.3 °C 1014.1 hPa SW 19.3 km/h 37 km/h 93 % 0 mm 0 W/m2
23:34 7.8 °C 6.4 °C 1014.1 hPa SW 14.5 km/h 25.7 km/h 91 % 0 mm 0 W/m2
23:39 8.1 °C 6.6 °C 1014.1 hPa SW 19.3 km/h 30.6 km/h 90 % 0 mm 0 W/m2
23:44 8.2 °C 6.5 °C 1014.1 hPa WSW 19.3 km/h 33.8 km/h 89 % 0 mm 0 W/m2
23:49 8.2 °C 6.5 °C 1013.8 hPa WSW 16.1 km/h 24.1 km/h 89 % 0 mm 0 W/m2
23:54 8.2 °C 6.5 °C 1013.8 hPa WSW 12.9 km/h 19.3 km/h 89 % 0 mm 0 W/m2
23:59 8.3 °C 6.6 °C 1013.8 hPa WSW 17.7 km/h 30.6 km/h 89 % 0 mm 0 W/m2
Delerius-Weather
Compliments of Weather Underground - 2.25 mb

Data updates at regular intervals.